Monday, October 16, 2017, 8:26 PM EDT
Back to Local

KTAN, Taunton Municipal Airport

Location: East Taunton, MA, United States Lat: 41.883
Local Time: 8:26 PM EDT ( 0:26 GMT) Lon: -71.017
Time Zone: US/Eastern Elev: 42 ft

Show me the last for .
Show Decoded

2017-10-16 19:52 METAR KTAN 162352Z AUTO 33007KT 10SM CLR 10/02 A3006 RMK AO2 SLP180 T01000022
                 10156 20100 53027 =
2017-10-16 18:52 METAR KTAN 162252Z AUTO 33006KT 10SM CLR 11/03 A3003 RMK AO2 SLP170 T01060033 =
2017-10-16 17:52 METAR KTAN 162152Z AUTO 34004KT 10SM CLR 11/04 A3000 RMK AO2 SLP157 T01110039 =
2017-10-16 16:52 METAR KTAN 162052Z AUTO 33009KT 290V350 10SM CLR 12/04 A2998 RMK AO2 SLP153
                 T01220039 53022 =
2017-10-16 15:52 METAR KTAN 161952Z AUTO 34008G17KT 10SM FEW036 13/04 A2996 RMK AO2 SLP146
                 T01330044 =
2017-10-16 14:52 METAR KTAN 161852Z AUTO VRB06KT 10SM FEW034 14/07 A2993 RMK AO2 SLP134 T01440067
                 =
2017-10-16 13:52 METAR KTAN 161752Z AUTO 34009KT 10SM CLR 16/07 A2992 RMK AO2 SLP131 T01560067
                 10172 20156 50002 =
2017-10-16 12:52 METAR KTAN 161652Z AUTO 30008KT 10SM CLR 16/07 A2992 RMK AO2 SLP132 T01610072 =
2017-10-16 11:52 METAR KTAN 161552Z AUTO 30006KT 10SM FEW033 16/08 A2993 RMK AO2 SLP135 T01610083
                 =
2017-10-16 10:52 METAR KTAN 161452Z AUTO VRB05KT 10SM CLR 17/08 A2991 RMK AO2 SLP130 T01670083
                 53026 =
2017-10-16 09:52 METAR KTAN 161352Z AUTO 00000KT 10SM CLR 16/08 A2987 RMK AO2 PRESFR SLP114
                 T01560083 =
2017-10-16 08:52 METAR KTAN 161252Z AUTO 30008KT 280V340 10SM FEW100 FEW120 16/09 A2988 RMK AO2
                 SLP118 T01560089 =
2017-10-16 07:52 METAR KTAN 161152Z AUTO VRB06KT 10SM BKN060 OVC120 16/10 A2984 RMK AO2 RAE13
                 SLP103 P0000 60001 70001 T01610100 10206 20161 53025 =
2017-10-16 06:52 METAR KTAN 161052Z AUTO VRB05KT 10SM -RA FEW060 BKN075 OVC090 17/14 A2980 RMK
                 AO2 SLP090 P0001 T01670139 =
2017-10-16 05:52 METAR KTAN 160952Z AUTO 26003KT 10SM -RA SCT029 OVC070 17/14 A2979 RMK AO2 RAB18
                 SLP087 P0000 T01720139 =
2017-10-16 04:52 METAR KTAN 160852Z AUTO 29005KT 10SM OVC023 19/16 A2976 RMK AO2 RAB0755E52
                 SLP077 P0000 60000 T01890156 55002 =
2017-10-16 03:52 METAR KTAN 160752Z AUTO 21006KT 10SM BKN022 OVC075 20/18 A2974 RMK AO2 SLP070
                 T02000178 =
2017-10-16 02:52 METAR KTAN 160652Z AUTO VRB06KT 10SM BKN021 OVC026 21/17 A2975 RMK AO2 SLP072
                 T02060172 =
2017-10-16 01:52 METAR KTAN 160552Z AUTO 24007G18KT 10SM OVC017 21/17 A2977 RMK AO2 PRESRR SLP080
                 T02060172 10206 20194 55003 =
2017-10-16 00:52 METAR KTAN 160452Z AUTO 21009G19KT 10SM OVC019 20/17 A2976 RMK AO2 PK WND
                 21026/0412 SLP075 T02000167 402170156 =
2017-10-16 00:05 METAR KTAN 160405Z AUTO 21013G21KT 10SM OVC015 20/17 A2976 RMK AO2 T02000167 =
2017-10-15 23:52 METAR KTAN 160352Z AUTO 22010G18KT 180V260 10SM OVC014 20/17 A2976 RMK AO2
                 SLP078 T02000167 =
2017-10-15 23:21 METAR KTAN 160321Z AUTO 22014G22KT 10SM OVC015 20/17 A2977 RMK AO2 T02000167 =
2017-10-15 22:52 METAR KTAN 160252Z AUTO 21011G28KT 10SM OVC011 20/17 A2978 RMK AO2 PK WND
                 23028/0248 SLP083 T02000167 55007 =
2017-10-15 21:52 METAR KTAN 160152Z AUTO 22012G25KT 180V260 10SM OVC011 20/17 A2977 RMK AO2
                 SLP081 T02000167 =
2017-10-15 20:52 METAR KTAN 160052Z AUTO 20013G23KT 10SM OVC012 20/17 A2978 RMK AO2 SLP083
                 T02000167 =

Support USWX by starting your Amazon purchase here.